sensor_id;sensor_type;location;lat;lon;timestamp;temperature;humidity
77039;DHT22;65970;50.476;4.840;2024-01-07T00:04:54;5.80;40.40
77039;DHT22;65970;50.476;4.840;2024-01-07T00:09:54;5.80;40.50
77039;DHT22;65970;50.476;4.840;2024-01-07T00:14:55;5.80;40.60
77039;DHT22;65970;50.476;4.840;2024-01-07T00:19:55;5.80;40.70
77039;DHT22;65970;50.476;4.840;2024-01-07T00:24:56;5.80;40.60
77039;DHT22;65970;50.476;4.840;2024-01-07T00:29:56;5.70;40.60
77039;DHT22;65970;50.476;4.840;2024-01-07T00:34:57;5.70;40.50
77039;DHT22;65970;50.476;4.840;2024-01-07T00:39:57;5.70;40.50
77039;DHT22;65970;50.476;4.840;2024-01-07T00:44:58;5.70;40.60
77039;DHT22;65970;50.476;4.840;2024-01-07T00:49:58;5.70;40.40
77039;DHT22;65970;50.476;4.840;2024-01-07T00:54:59;5.70;40.40
77039;DHT22;65970;50.476;4.840;2024-01-07T01:00:00;5.70;40.30
77039;DHT22;65970;50.476;4.840;2024-01-07T01:05:05;5.70;40.50
77039;DHT22;65970;50.476;4.840;2024-01-07T01:10:06;5.70;40.50
77039;DHT22;65970;50.476;4.840;2024-01-07T01:15:07;5.70;40.40
77039;DHT22;65970;50.476;4.840;2024-01-07T01:20:08;5.70;40.30
77039;DHT22;65970;50.476;4.840;2024-01-07T01:25:08;5.60;40.40
77039;DHT22;65970;50.476;4.840;2024-01-07T01:30:09;5.60;40.10
77039;DHT22;65970;50.476;4.840;2024-01-07T01:35:10;5.60;39.20
77039;DHT22;65970;50.476;4.840;2024-01-07T01:40:11;5.60;40.00
77039;DHT22;65970;50.476;4.840;2024-01-07T01:45:12;5.60;39.80
77039;DHT22;65970;50.476;4.840;2024-01-07T01:50:12;5.60;39.80
77039;DHT22;65970;50.476;4.840;2024-01-07T01:55:13;5.60;39.90
77039;DHT22;65970;50.476;4.840;2024-01-07T02:00:14;5.50;39.80
77039;DHT22;65970;50.476;4.840;2024-01-07T02:05:15;5.50;39.90
77039;DHT22;65970;50.476;4.840;2024-01-07T02:10:16;5.50;40.00
77039;DHT22;65970;50.476;4.840;2024-01-07T02:15:16;5.50;39.80
77039;DHT22;65970;50.476;4.840;2024-01-07T02:20:17;5.50;39.60
77039;DHT22;65970;50.476;4.840;2024-01-07T02:25:17;5.50;39.80
77039;DHT22;65970;50.476;4.840;2024-01-07T02:30:18;5.40;39.20
77039;DHT22;65970;50.476;4.840;2024-01-07T02:35:18;5.50;39.10
77039;DHT22;65970;50.476;4.840;2024-01-07T02:40:19;5.40;39.30
77039;DHT22;65970;50.476;4.840;2024-01-07T02:45:20;5.40;39.20
77039;DHT22;65970;50.476;4.840;2024-01-07T02:50:20;5.40;39.00
77039;DHT22;65970;50.476;4.840;2024-01-07T02:55:21;5.40;38.90
77039;DHT22;65970;50.476;4.840;2024-01-07T03:00:21;5.40;39.20
77039;DHT22;65970;50.476;4.840;2024-01-07T03:05:22;5.30;38.90
77039;DHT22;65970;50.476;4.840;2024-01-07T03:10:22;5.30;39.20
77039;DHT22;65970;50.476;4.840;2024-01-07T03:15:23;5.30;38.90
77039;DHT22;65970;50.476;4.840;2024-01-07T03:20:23;5.30;38.90
77039;DHT22;65970;50.476;4.840;2024-01-07T03:25:24;5.30;38.30
77039;DHT22;65970;50.476;4.840;2024-01-07T03:30:24;5.30;39.10
77039;DHT22;65970;50.476;4.840;2024-01-07T03:35:25;5.30;39.10
77039;DHT22;65970;50.476;4.840;2024-01-07T03:40:25;5.20;38.90
77039;DHT22;65970;50.476;4.840;2024-01-07T03:45:26;5.20;39.00
77039;DHT22;65970;50.476;4.840;2024-01-07T03:50:26;5.20;39.10
77039;DHT22;65970;50.476;4.840;2024-01-07T03:55:27;5.20;39.40
77039;DHT22;65970;50.476;4.840;2024-01-07T04:00:27;5.20;39.40
77039;DHT22;65970;50.476;4.840;2024-01-07T04:05:28;5.20;39.70
77039;DHT22;65970;50.476;4.840;2024-01-07T04:10:29;5.20;39.70
77039;DHT22;65970;50.476;4.840;2024-01-07T04:15:29;5.20;39.60
77039;DHT22;65970;50.476;4.840;2024-01-07T04:20:30;5.10;39.60
77039;DHT22;65970;50.476;4.840;2024-01-07T04:25:31;5.10;39.70
77039;DHT22;65970;50.476;4.840;2024-01-07T04:30:31;5.10;39.80
77039;DHT22;65970;50.476;4.840;2024-01-07T04:35:32;5.10;39.80
77039;DHT22;65970;50.476;4.840;2024-01-07T04:40:35;5.10;39.90
77039;DHT22;65970;50.476;4.840;2024-01-07T04:45:36;5.10;40.00
77039;DHT22;65970;50.476;4.840;2024-01-07T04:50:36;5.10;40.00
77039;DHT22;65970;50.476;4.840;2024-01-07T04:55:37;5.10;39.80
77039;DHT22;65970;50.476;4.840;2024-01-07T05:00:38;5.10;40.00
77039;DHT22;65970;50.476;4.840;2024-01-07T05:05:38;5.00;39.80
77039;DHT22;65970;50.476;4.840;2024-01-07T05:10:39;5.00;39.80
77039;DHT22;65970;50.476;4.840;2024-01-07T05:15:39;5.00;39.90
77039;DHT22;65970;50.476;4.840;2024-01-07T05:20:40;5.00;39.90
77039;DHT22;65970;50.476;4.840;2024-01-07T05:25:42;5.00;39.70
77039;DHT22;65970;50.476;4.840;2024-01-07T05:30:44;5.00;39.60
77039;DHT22;65970;50.476;4.840;2024-01-07T05:35:44;5.00;39.60
77039;DHT22;65970;50.476;4.840;2024-01-07T05:40:45;4.90;39.60
77039;DHT22;65970;50.476;4.840;2024-01-07T05:45:45;5.00;39.40
77039;DHT22;65970;50.476;4.840;2024-01-07T05:50:46;4.90;39.60
77039;DHT22;65970;50.476;4.840;2024-01-07T05:55:46;4.90;39.30
77039;DHT22;65970;50.476;4.840;2024-01-07T06:00:47;4.90;39.40
77039;DHT22;65970;50.476;4.840;2024-01-07T06:05:48;4.90;39.30
77039;DHT22;65970;50.476;4.840;2024-01-07T06:10:48;4.90;39.50
77039;DHT22;65970;50.476;4.840;2024-01-07T06:15:49;4.80;39.60
77039;DHT22;65970;50.476;4.840;2024-01-07T06:20:49;4.80;39.60
77039;DHT22;65970;50.476;4.840;2024-01-07T06:25:50;4.80;39.60
77039;DHT22;65970;50.476;4.840;2024-01-07T06:30:50;4.80;39.60
77039;DHT22;65970;50.476;4.840;2024-01-07T06:35:51;4.80;39.70
77039;DHT22;65970;50.476;4.840;2024-01-07T06:40:51;4.80;39.80
77039;DHT22;65970;50.476;4.840;2024-01-07T06:45:52;4.80;39.70
77039;DHT22;65970;50.476;4.840;2024-01-07T06:50:52;4.80;39.80
77039;DHT22;65970;50.476;4.840;2024-01-07T06:55:53;4.70;39.90
77039;DHT22;65970;50.476;4.840;2024-01-07T07:00:53;4.70;40.00
77039;DHT22;65970;50.476;4.840;2024-01-07T07:05:54;4.70;40.00
77039;DHT22;65970;50.476;4.840;2024-01-07T07:10:54;4.70;40.00
77039;DHT22;65970;50.476;4.840;2024-01-07T07:15:55;4.70;40.00
77039;DHT22;65970;50.476;4.840;2024-01-07T07:20:56;4.70;40.00
77039;DHT22;65970;50.476;4.840;2024-01-07T07:25:56;4.70;40.10
77039;DHT22;65970;50.476;4.840;2024-01-07T07:30:57;4.70;40.10
77039;DHT22;65970;50.476;4.840;2024-01-07T07:35:57;4.70;40.00
77039;DHT22;65970;50.476;4.840;2024-01-07T07:40:59;4.70;39.90
77039;DHT22;65970;50.476;4.840;2024-01-07T07:45:59;4.60;39.90
77039;DHT22;65970;50.476;4.840;2024-01-07T07:51:00;4.60;39.80
77039;DHT22;65970;50.476;4.840;2024-01-07T07:56:01;4.60;39.80
77039;DHT22;65970;50.476;4.840;2024-01-07T08:01:02;4.60;39.70
77039;DHT22;65970;50.476;4.840;2024-01-07T08:06:02;4.60;39.90
77039;DHT22;65970;50.476;4.840;2024-01-07T08:11:03;4.60;39.80
77039;DHT22;65970;50.476;4.840;2024-01-07T08:16:04;4.60;39.80
77039;DHT22;65970;50.476;4.840;2024-01-07T08:21:05;4.50;39.60
77039;DHT22;65970;50.476;4.840;2024-01-07T08:26:05;4.50;39.70
77039;DHT22;65970;50.476;4.840;2024-01-07T08:31:06;4.50;39.50
77039;DHT22;65970;50.476;4.840;2024-01-07T08:36:07;4.50;39.70
77039;DHT22;65970;50.476;4.840;2024-01-07T08:41:07;4.50;39.80
77039;DHT22;65970;50.476;4.840;2024-01-07T08:46:08;4.50;39.90
77039;DHT22;65970;50.476;4.840;2024-01-07T08:51:08;4.50;39.80
77039;DHT22;65970;50.476;4.840;2024-01-07T08:56:09;4.50;39.80
77039;DHT22;65970;50.476;4.840;2024-01-07T09:01:09;4.50;38.90
77039;DHT22;65970;50.476;4.840;2024-01-07T09:06:10;4.40;39.80
77039;DHT22;65970;50.476;4.840;2024-01-07T09:11:10;4.40;39.70
77039;DHT22;65970;50.476;4.840;2024-01-07T09:16:11;4.40;39.60
77039;DHT22;65970;50.476;4.840;2024-01-07T09:21:12;4.40;39.70
77039;DHT22;65970;50.476;4.840;2024-01-07T09:26:12;4.40;39.70
77039;DHT22;65970;50.476;4.840;2024-01-07T09:31:13;4.40;39.60
77039;DHT22;65970;50.476;4.840;2024-01-07T09:36:13;4.40;39.60
77039;DHT22;65970;50.476;4.840;2024-01-07T09:41:14;4.40;39.70
77039;DHT22;65970;50.476;4.840;2024-01-07T09:46:15;4.30;39.70
77039;DHT22;65970;50.476;4.840;2024-01-07T09:51:19;4.30;39.70
77039;DHT22;65970;50.476;4.840;2024-01-07T09:56:41;4.30;39.60
77039;DHT22;65970;50.476;4.840;2024-01-07T10:01:44;4.30;39.50
77039;DHT22;65970;50.476;4.840;2024-01-07T10:06:48;4.30;39.40
77039;DHT22;65970;50.476;4.840;2024-01-07T10:11:49;4.20;39.30
77039;DHT22;65970;50.476;4.840;2024-01-07T10:16:50;4.20;39.40
77039;DHT22;65970;50.476;4.840;2024-01-07T10:22:03;4.20;39.40
77039;DHT22;65970;50.476;4.840;2024-01-07T10:27:05;4.20;39.50
77039;DHT22;65970;50.476;4.840;2024-01-07T10:32:06;4.20;39.20
77039;DHT22;65970;50.476;4.840;2024-01-07T10:37:06;4.20;39.30
77039;DHT22;65970;50.476;4.840;2024-01-07T10:42:09;4.20;39.40
77039;DHT22;65970;50.476;4.840;2024-01-07T10:47:10;4.10;39.40
77039;DHT22;65970;50.476;4.840;2024-01-07T10:52:12;4.10;39.50
77039;DHT22;65970;50.476;4.840;2024-01-07T10:57:21;4.10;39.40
77039;DHT22;65970;50.476;4.840;2024-01-07T11:02:23;4.10;39.50
77039;DHT22;65970;50.476;4.840;2024-01-07T11:07:35;4.10;39.50
77039;DHT22;65970;50.476;4.840;2024-01-07T11:12:36;4.10;39.60
77039;DHT22;65970;50.476;4.840;2024-01-07T11:17:41;4.10;39.70
77039;DHT22;65970;50.476;4.840;2024-01-07T11:22:41;4.10;39.70
77039;DHT22;65970;50.476;4.840;2024-01-07T11:27:42;4.10;39.70
77039;DHT22;65970;50.476;4.840;2024-01-07T11:32:42;4.10;39.70
77039;DHT22;65970;50.476;4.840;2024-01-07T11:37:44;4.10;39.60
77039;DHT22;65970;50.476;4.840;2024-01-07T11:42:45;4.10;39.50
77039;DHT22;65970;50.476;4.840;2024-01-07T11:47:46;4.00;39.50
77039;DHT22;65970;50.476;4.840;2024-01-07T11:52:46;4.00;39.40
77039;DHT22;65970;50.476;4.840;2024-01-07T11:57:47;4.00;39.40
77039;DHT22;65970;50.476;4.840;2024-01-07T12:02:48;4.00;39.30
77039;DHT22;65970;50.476;4.840;2024-01-07T12:07:48;4.00;39.10
77039;DHT22;65970;50.476;4.840;2024-01-07T12:12:52;4.00;39.30
77039;DHT22;65970;50.476;4.840;2024-01-07T12:17:59;4.00;39.30
77039;DHT22;65970;50.476;4.840;2024-01-07T12:23:06;4.00;39.20
77039;DHT22;65970;50.476;4.840;2024-01-07T12:28:07;4.00;39.30
77039;DHT22;65970;50.476;4.840;2024-01-07T12:33:08;4.00;39.50
77039;DHT22;65970;50.476;4.840;2024-01-07T12:38:08;3.90;39.50
77039;DHT22;65970;50.476;4.840;2024-01-07T12:43:09;3.90;39.40
77039;DHT22;65970;50.476;4.840;2024-01-07T12:48:09;3.90;39.10
77039;DHT22;65970;50.476;4.840;2024-01-07T12:53:10;3.90;39.20
77039;DHT22;65970;50.476;4.840;2024-01-07T12:58:10;3.90;39.10
77039;DHT22;65970;50.476;4.840;2024-01-07T13:03:11;3.90;39.00
77039;DHT22;65970;50.476;4.840;2024-01-07T13:08:12;3.90;38.90
77039;DHT22;65970;50.476;4.840;2024-01-07T13:13:13;3.90;38.80
77039;DHT22;65970;50.476;4.840;2024-01-07T13:18:14;3.80;38.80
77039;DHT22;65970;50.476;4.840;2024-01-07T13:23:14;3.90;39.10
77039;DHT22;65970;50.476;4.840;2024-01-07T13:28:15;3.90;39.10
77039;DHT22;65970;50.476;4.840;2024-01-07T13:33:15;3.80;39.00
77039;DHT22;65970;50.476;4.840;2024-01-07T13:38:16;3.80;39.10
77039;DHT22;65970;50.476;4.840;2024-01-07T13:43:16;3.80;39.10
77039;DHT22;65970;50.476;4.840;2024-01-07T13:48:17;3.80;39.10
77039;DHT22;65970;50.476;4.840;2024-01-07T13:53:17;3.80;39.00
77039;DHT22;65970;50.476;4.840;2024-01-07T13:58:18;3.80;38.90
77039;DHT22;65970;50.476;4.840;2024-01-07T14:03:18;3.70;38.90
77039;DHT22;65970;50.476;4.840;2024-01-07T14:08:19;3.80;39.10
77039;DHT22;65970;50.476;4.840;2024-01-07T14:13:19;3.70;39.10
77039;DHT22;65970;50.476;4.840;2024-01-07T14:18:20;3.70;39.00
77039;DHT22;65970;50.476;4.840;2024-01-07T14:23:21;3.70;39.10
77039;DHT22;65970;50.476;4.840;2024-01-07T14:28:21;3.70;39.00
77039;DHT22;65970;50.476;4.840;2024-01-07T14:33:22;3.70;39.10
77039;DHT22;65970;50.476;4.840;2024-01-07T14:38:22;3.70;38.90
77039;DHT22;65970;50.476;4.840;2024-01-07T14:43:23;3.70;39.00
77039;DHT22;65970;50.476;4.840;2024-01-07T14:48:24;3.70;38.90
77039;DHT22;65970;50.476;4.840;2024-01-07T14:53:24;3.70;38.90
77039;DHT22;65970;50.476;4.840;2024-01-07T14:58:25;3.60;38.80
77039;DHT22;65970;50.476;4.840;2024-01-07T15:03:25;3.60;38.70
77039;DHT22;65970;50.476;4.840;2024-01-07T15:08:26;3.60;38.70
77039;DHT22;65970;50.476;4.840;2024-01-07T15:13:26;3.60;38.40
77039;DHT22;65970;50.476;4.840;2024-01-07T15:18:27;3.60;38.70
77039;DHT22;65970;50.476;4.840;2024-01-07T15:23:28;3.60;38.80
77039;DHT22;65970;50.476;4.840;2024-01-07T15:28:28;3.60;38.70
77039;DHT22;65970;50.476;4.840;2024-01-07T15:33:29;3.50;38.70
77039;DHT22;65970;50.476;4.840;2024-01-07T15:38:29;3.50;38.40
77039;DHT22;65970;50.476;4.840;2024-01-07T15:43:30;3.50;38.40
77039;DHT22;65970;50.476;4.840;2024-01-07T15:48:31;3.50;38.50
77039;DHT22;65970;50.476;4.840;2024-01-07T15:53:31;3.50;38.50
77039;DHT22;65970;50.476;4.840;2024-01-07T15:58:32;3.50;38.40
77039;DHT22;65970;50.476;4.840;2024-01-07T16:03:33;3.50;38.40
77039;DHT22;65970;50.476;4.840;2024-01-07T16:08:34;3.50;38.40
77039;DHT22;65970;50.476;4.840;2024-01-07T16:13:34;3.50;38.40
77039;DHT22;65970;50.476;4.840;2024-01-07T16:18:35;3.50;38.40
77039;DHT22;65970;50.476;4.840;2024-01-07T16:23:35;3.50;38.40
77039;DHT22;65970;50.476;4.840;2024-01-07T16:28:36;3.40;38.20
77039;DHT22;65970;50.476;4.840;2024-01-07T16:33:36;3.40;37.70
77039;DHT22;65970;50.476;4.840;2024-01-07T16:38:37;3.40;37.80
77039;DHT22;65970;50.476;4.840;2024-01-07T16:43:37;3.40;37.70
77039;DHT22;65970;50.476;4.840;2024-01-07T16:48:38;3.30;37.50
77039;DHT22;65970;50.476;4.840;2024-01-07T16:53:38;3.30;37.30
77039;DHT22;65970;50.476;4.840;2024-01-07T16:58:39;3.30;36.90
77039;DHT22;65970;50.476;4.840;2024-01-07T17:03:39;3.30;37.00
77039;DHT22;65970;50.476;4.840;2024-01-07T17:08:40;3.30;37.00
77039;DHT22;65970;50.476;4.840;2024-01-07T17:13:41;3.20;37.10
77039;DHT22;65970;50.476;4.840;2024-01-07T17:18:41;3.20;36.20
77039;DHT22;65970;50.476;4.840;2024-01-07T17:23:42;3.20;36.50
77039;DHT22;65970;50.476;4.840;2024-01-07T17:28:42;3.10;36.10
77039;DHT22;65970;50.476;4.840;2024-01-07T17:33:43;3.10;36.30
77039;DHT22;65970;50.476;4.840;2024-01-07T17:38:43;3.10;34.70
77039;DHT22;65970;50.476;4.840;2024-01-07T17:43:44;3.10;35.10
77039;DHT22;65970;50.476;4.840;2024-01-07T17:48:45;3.00;34.90
77039;DHT22;65970;50.476;4.840;2024-01-07T17:53:45;3.00;35.00
77039;DHT22;65970;50.476;4.840;2024-01-07T17:58:46;3.00;34.90
77039;DHT22;65970;50.476;4.840;2024-01-07T18:03:47;2.90;34.60
77039;DHT22;65970;50.476;4.840;2024-01-07T18:08:47;2.90;34.20
77039;DHT22;65970;50.476;4.840;2024-01-07T18:13:48;2.90;34.30
77039;DHT22;65970;50.476;4.840;2024-01-07T18:18:48;2.90;34.20
77039;DHT22;65970;50.476;4.840;2024-01-07T18:23:49;2.80;33.80
77039;DHT22;65970;50.476;4.840;2024-01-07T18:28:49;2.80;34.40
77039;DHT22;65970;50.476;4.840;2024-01-07T18:33:50;2.80;33.60
77039;DHT22;65970;50.476;4.840;2024-01-07T18:38:50;2.70;33.80
77039;DHT22;65970;50.476;4.840;2024-01-07T18:43:51;2.70;33.70
77039;DHT22;65970;50.476;4.840;2024-01-07T18:48:52;2.70;33.30
77039;DHT22;65970;50.476;4.840;2024-01-07T18:53:52;2.70;33.80
77039;DHT22;65970;50.476;4.840;2024-01-07T18:58:53;2.60;33.90
77039;DHT22;65970;50.476;4.840;2024-01-07T19:03:54;2.60;34.40
77039;DHT22;65970;50.476;4.840;2024-01-07T19:08:54;2.60;33.10
77039;DHT22;65970;50.476;4.840;2024-01-07T19:13:55;2.50;33.90
77039;DHT22;65970;50.476;4.840;2024-01-07T19:18:55;2.50;33.30
77039;DHT22;65970;50.476;4.840;2024-01-07T19:23:56;2.50;34.40
77039;DHT22;65970;50.476;4.840;2024-01-07T19:28:57;2.50;33.60
77039;DHT22;65970;50.476;4.840;2024-01-07T19:33:57;2.50;33.80
77039;DHT22;65970;50.476;4.840;2024-01-07T19:38:59;2.50;33.90
77039;DHT22;65970;50.476;4.840;2024-01-07T19:44:00;2.40;34.30
77039;DHT22;65970;50.476;4.840;2024-01-07T19:49:02;2.40;33.80
77039;DHT22;65970;50.476;4.840;2024-01-07T19:54:03;2.40;33.40
77039;DHT22;65970;50.476;4.840;2024-01-07T19:59:03;2.40;33.90
77039;DHT22;65970;50.476;4.840;2024-01-07T20:04:04;2.30;34.30
77039;DHT22;65970;50.476;4.840;2024-01-07T20:09:04;2.30;33.80
77039;DHT22;65970;50.476;4.840;2024-01-07T20:14:05;2.30;33.70
77039;DHT22;65970;50.476;4.840;2024-01-07T20:19:05;2.30;33.60
77039;DHT22;65970;50.476;4.840;2024-01-07T20:24:06;2.30;33.70
77039;DHT22;65970;50.476;4.840;2024-01-07T20:29:07;2.20;32.60
77039;DHT22;65970;50.476;4.840;2024-01-07T20:34:07;2.30;34.50
77039;DHT22;65970;50.476;4.840;2024-01-07T20:39:08;2.30;33.60
77039;DHT22;65970;50.476;4.840;2024-01-07T20:44:08;2.20;33.20
77039;DHT22;65970;50.476;4.840;2024-01-07T20:49:09;2.20;33.60
77039;DHT22;65970;50.476;4.840;2024-01-07T20:54:09;2.20;33.70
77039;DHT22;65970;50.476;4.840;2024-01-07T20:59:10;2.20;32.50
77039;DHT22;65970;50.476;4.840;2024-01-07T21:04:10;2.10;33.50
77039;DHT22;65970;50.476;4.840;2024-01-07T21:09:11;2.20;33.40
77039;DHT22;65970;50.476;4.840;2024-01-07T21:14:11;2.10;33.40
77039;DHT22;65970;50.476;4.840;2024-01-07T21:19:12;2.10;33.80
77039;DHT22;65970;50.476;4.840;2024-01-07T21:24:13;2.10;33.40
77039;DHT22;65970;50.476;4.840;2024-01-07T21:29:13;2.10;33.40
77039;DHT22;65970;50.476;4.840;2024-01-07T21:34:14;2.10;33.50
77039;DHT22;65970;50.476;4.840;2024-01-07T21:39:14;2.10;33.50
77039;DHT22;65970;50.476;4.840;2024-01-07T21:44:15;2.00;33.30
77039;DHT22;65970;50.476;4.840;2024-01-07T21:49:15;2.00;33.70
77039;DHT22;65970;50.476;4.840;2024-01-07T21:54:16;2.00;33.50
77039;DHT22;65970;50.476;4.840;2024-01-07T21:59:16;2.00;33.70
77039;DHT22;65970;50.476;4.840;2024-01-07T22:04:17;2.00;33.80
77039;DHT22;65970;50.476;4.840;2024-01-07T22:09:17;2.00;34.00
77039;DHT22;65970;50.476;4.840;2024-01-07T22:14:18;2.00;33.70
77039;DHT22;65970;50.476;4.840;2024-01-07T22:19:19;1.90;33.30
77039;DHT22;65970;50.476;4.840;2024-01-07T22:24:19;1.90;33.70
77039;DHT22;65970;50.476;4.840;2024-01-07T22:29:20;1.90;33.80
77039;DHT22;65970;50.476;4.840;2024-01-07T22:34:20;1.80;33.60
77039;DHT22;65970;50.476;4.840;2024-01-07T22:39:21;1.90;33.50
77039;DHT22;65970;50.476;4.840;2024-01-07T22:44:21;1.80;33.20
77039;DHT22;65970;50.476;4.840;2024-01-07T22:49:22;1.80;33.10
77039;DHT22;65970;50.476;4.840;2024-01-07T22:54:22;1.80;33.40
77039;DHT22;65970;50.476;4.840;2024-01-07T22:59:23;1.70;32.90
77039;DHT22;65970;50.476;4.840;2024-01-07T23:04:23;1.70;33.40
77039;DHT22;65970;50.476;4.840;2024-01-07T23:09:24;1.70;33.30
77039;DHT22;65970;50.476;4.840;2024-01-07T23:14:24;1.70;33.00
77039;DHT22;65970;50.476;4.840;2024-01-07T23:19:25;1.60;33.40
77039;DHT22;65970;50.476;4.840;2024-01-07T23:24:26;1.60;33.40
77039;DHT22;65970;50.476;4.840;2024-01-07T23:29:26;1.60;33.60
77039;DHT22;65970;50.476;4.840;2024-01-07T23:34:27;1.60;33.60
77039;DHT22;65970;50.476;4.840;2024-01-07T23:39:27;1.50;33.20
77039;DHT22;65970;50.476;4.840;2024-01-07T23:44:28;1.50;33.10
77039;DHT22;65970;50.476;4.840;2024-01-07T23:49:28;1.50;33.60
77039;DHT22;65970;50.476;4.840;2024-01-07T23:54:29;1.50;33.40
77039;DHT22;65970;50.476;4.840;2024-01-07T23:59:29;1.50;33.80
